createdAt,value
2022-10-25T00:03:23.198Z,11.50
2022-10-25T00:08:27.602Z,11.40
2022-10-25T00:50:54.475Z,11.00
2022-10-25T00:56:03.237Z,11.00
2022-10-25T01:01:08.357Z,10.90
2022-10-25T01:06:18.097Z,10.90
2022-10-25T01:11:21.739Z,11.00
2022-10-25T01:16:32.763Z,11.10
2022-10-25T01:21:45.754Z,11.20
2022-10-25T01:27:06.382Z,11.40
2022-10-25T01:32:18.741Z,11.50
2022-10-25T02:06:53.759Z,12.20
2022-10-25T02:11:59.529Z,12.30
2022-10-25T02:17:07.603Z,12.30
2022-10-25T03:15:29.166Z,12.50
2022-10-25T03:20:34.041Z,12.50
2022-10-25T03:25:37.602Z,12.50
2022-10-25T03:30:42.042Z,12.50
2022-10-25T03:35:50.834Z,12.70
2022-10-25T03:40:53.973Z,12.70
2022-10-25T03:45:57.118Z,12.90
2022-10-25T03:51:01.619Z,13.00
2022-10-25T03:56:05.234Z,13.10
2022-10-25T04:01:09.923Z,13.20
2022-10-25T04:06:14.591Z,13.30
2022-10-25T04:11:17.915Z,13.30
2022-10-25T04:16:21.149Z,13.30
2022-10-25T04:21:26.003Z,13.10
2022-10-25T04:26:29.537Z,13.00
2022-10-25T04:31:34.260Z,13.00
2022-10-25T04:36:41.551Z,13.30
2022-10-25T04:41:44.869Z,13.20
2022-10-25T04:46:48.996Z,13.10
2022-10-25T04:51:53.685Z,13.30
2022-10-25T04:56:56.766Z,13.10
2022-10-25T05:01:59.909Z,13.00
2022-10-25T05:07:04.472Z,12.80
2022-10-25T05:12:07.676Z,12.40
2022-10-25T05:17:10.878Z,12.30
2022-10-25T05:22:15.355Z,12.00
2022-10-25T05:27:18.934Z,12.30
2022-10-25T05:32:22.016Z,12.10
2022-10-25T05:37:26.475Z,12.10
2022-10-25T05:42:29.622Z,12.20
2022-10-25T05:47:32.945Z,12.40
2022-10-25T05:52:41.541Z,12.60
2022-10-25T05:57:50.625Z,12.80
2022-10-25T06:02:53.719Z,13.10
2022-10-25T06:08:01.427Z,13.20
2022-10-25T06:13:10.050Z,13.40
2022-10-25T06:18:21.379Z,13.50
2022-10-25T06:23:27.663Z,13.60
2022-10-25T06:28:31.868Z,13.60
2022-10-25T06:33:35.992Z,13.60
2022-10-25T06:38:41.456Z,13.80
2022-10-25T06:43:45.591Z,14.00
2022-10-25T06:48:49.311Z,13.90
2022-10-25T06:53:56.126Z,14.00
2022-10-25T06:58:59.971Z,14.20
2022-10-25T07:04:03.946Z,14.20
2022-10-25T07:09:10.281Z,14.20
2022-10-25T07:14:13.536Z,14.30
2022-10-25T07:19:17.562Z,14.50
2022-10-25T07:24:22.266Z,14.60
2022-10-25T07:29:26.322Z,14.60
2022-10-25T07:34:30.767Z,14.50
2022-10-25T07:39:36.286Z,14.10
2022-10-25T07:44:39.928Z,13.90
2022-10-25T07:49:43.271Z,13.90
2022-10-25T07:54:48.339Z,13.70
2022-10-25T07:59:51.729Z,13.70
2022-10-25T08:04:55.028Z,13.50
2022-10-25T08:10:21.866Z,13.60
2022-10-25T08:15:29.079Z,13.80
2022-10-25T08:21:06.482Z,13.90
2022-10-25T08:26:36.450Z,14.00
2022-10-25T08:31:59.915Z,14.30
2022-10-25T08:37:07.094Z,14.60
2022-10-25T08:42:39.479Z,14.70
2022-10-25T08:48:04.346Z,14.90
2022-10-25T08:53:16.952Z,14.90
2022-10-25T08:58:29.738Z,14.80
2022-10-25T09:03:51.675Z,14.80
2022-10-25T09:09:10.184Z,15.00
2022-10-25T09:14:45.606Z,15.40
2022-10-25T09:20:15.061Z,15.70
2022-10-25T09:25:42.278Z,15.70
2022-10-25T09:31:08.219Z,15.50
2022-10-25T09:36:17.038Z,15.60
2022-10-25T09:41:32.320Z,15.90
2022-10-25T09:47:03.060Z,16.20
2022-10-25T09:52:31.676Z,16.70
2022-10-25T09:57:38.020Z,17.00
2022-10-25T10:02:45.827Z,16.80
2022-10-25T10:07:50.655Z,16.60
2022-10-25T10:13:05.061Z,16.80
2022-10-25T10:18:28.104Z,16.60
2022-10-25T10:23:52.243Z,16.30
2022-10-25T10:29:19.807Z,16.00
2022-10-25T10:34:44.675Z,16.00
2022-10-25T10:40:23.373Z,15.50
2022-10-25T10:45:26.825Z,15.30
2022-10-25T10:50:32.899Z,15.30
2022-10-25T10:55:38.402Z,15.30
2022-10-25T11:00:49.930Z,15.40
2022-10-25T11:05:55.175Z,15.80
2022-10-25T11:11:12.396Z,16.20
2022-10-25T11:16:36.468Z,16.50
2022-10-25T11:21:53.935Z,17.50
2022-10-25T11:27:07.560Z,18.20
2022-10-25T11:32:29.331Z,18.80
2022-10-25T11:37:39.282Z,18.60
2022-10-25T11:43:03.856Z,18.20
2022-10-25T11:48:37.744Z,18.20
2022-10-25T11:54:00.893Z,18.20
2022-10-25T11:59:16.020Z,18.30
2022-10-25T12:04:29.490Z,18.70
2022-10-25T12:09:42.715Z,18.40
2022-10-25T12:14:51.004Z,17.80
2022-10-25T12:19:56.782Z,17.20
2022-10-25T12:25:05.030Z,16.80
2022-10-25T12:30:15.074Z,16.40
2022-10-25T12:35:23.128Z,16.30
2022-10-25T12:40:29.485Z,17.90
2022-10-25T12:45:57.411Z,19.40
2022-10-25T12:51:25.339Z,20.20
2022-10-25T12:56:45.027Z,20.80
2022-10-25T13:02:04.460Z,19.30
2022-10-25T13:07:09.625Z,19.80
2022-10-25T13:12:22.923Z,19.10
2022-10-25T13:18:00.982Z,18.30
2022-10-25T13:23:59.671Z,16.90
2022-10-25T13:29:45.439Z,16.30
2022-10-25T13:34:49.048Z,16.10
2022-10-25T13:39:54.458Z,15.90
2022-10-25T13:45:07.265Z,15.70
2022-10-25T13:50:18.852Z,15.70
2022-10-25T13:55:24.319Z,15.90
2022-10-25T14:21:20.908Z,15.80
2022-10-25T14:26:25.152Z,15.40
2022-10-25T14:31:28.558Z,15.20
2022-10-25T14:36:36.791Z,15.00
2022-10-25T14:41:40.130Z,15.00
2022-10-25T14:46:44.951Z,14.90
2022-10-25T14:51:51.719Z,15.10
2022-10-25T14:56:57.951Z,14.80
2022-10-25T15:02:05.158Z,14.60
2022-10-25T15:07:21.169Z,14.40
2022-10-25T15:12:26.187Z,14.20
2022-10-25T15:17:31.860Z,14.00
2022-10-25T15:22:44.162Z,14.00
2022-10-25T15:27:48.013Z,13.90
2022-10-25T15:32:51.620Z,13.70
2022-10-25T15:37:57.434Z,13.30
2022-10-25T15:43:00.594Z,13.00
2022-10-25T15:48:05.068Z,12.90
2022-10-25T15:53:11.790Z,12.60
2022-10-25T15:58:15.393Z,12.30
2022-10-25T16:03:21.392Z,12.10
2022-10-25T16:08:26.012Z,11.90
2022-10-25T16:13:33.044Z,11.70
2022-10-25T16:18:36.540Z,11.60
2022-10-25T16:23:41.546Z,11.50
2022-10-25T16:28:44.944Z,11.40
2022-10-25T16:33:49.443Z,11.40
2022-10-25T16:38:54.489Z,11.30
2022-10-25T16:43:58.790Z,11.10
2022-10-25T16:49:02.477Z,11.10
2022-10-25T16:54:08.141Z,11.00
2022-10-25T17:09:06.407Z,10.80
2022-10-25T17:14:10.526Z,10.70
2022-10-25T17:19:13.708Z,10.50
2022-10-25T17:24:20.146Z,10.60
2022-10-25T17:29:24.492Z,10.50
2022-10-25T17:34:29.188Z,10.50
2022-10-25T17:39:37.250Z,10.50
2022-10-25T17:44:45.365Z,10.40
2022-10-25T17:49:58.057Z,10.30
2022-10-25T17:55:12.801Z,10.30
2022-10-25T18:00:25.582Z,10.20
2022-10-25T18:05:32.943Z,10.20
2022-10-25T18:10:57.171Z,10.00
2022-10-25T18:21:12.050Z,9.90
2022-10-25T18:26:18.285Z,10.00
2022-10-25T18:31:22.599Z,9.90
2022-10-25T18:36:28.119Z,9.80
2022-10-25T18:41:35.550Z,9.70
2022-10-25T18:46:39.567Z,9.50
2022-10-25T18:51:43.021Z,9.50
2022-10-25T18:56:51.639Z,9.40
2022-10-25T19:02:00.707Z,9.40
2022-10-25T19:07:04.418Z,9.30
2022-10-25T19:12:10.486Z,9.30
2022-10-25T19:17:14.154Z,9.30
2022-10-25T19:22:17.383Z,9.40
2022-10-25T19:27:23.297Z,9.20
2022-10-25T19:32:26.541Z,9.10
2022-10-25T19:37:30.440Z,9.10
2022-10-25T19:42:35.463Z,9.00
2022-10-25T19:47:41.228Z,8.90
2022-10-25T19:52:46.397Z,8.90
2022-10-25T19:57:51.515Z,8.90
2022-10-25T20:02:54.896Z,8.80
2022-10-25T20:07:58.739Z,8.70
2022-10-25T20:13:04.881Z,8.80
2022-10-25T20:18:08.738Z,8.80
2022-10-25T20:23:12.507Z,8.80
2022-10-25T20:28:17.861Z,8.80
2022-10-25T20:33:21.157Z,8.60
2022-10-25T20:38:25.361Z,8.50
2022-10-25T20:43:29.785Z,8.50
2022-10-25T20:48:33.676Z,8.40
2022-10-25T20:53:38.448Z,8.50
2022-10-25T20:58:43.737Z,8.40
2022-10-25T21:03:47.808Z,8.40
2022-10-25T21:08:51.825Z,8.30
2022-10-25T21:39:31.841Z,8.10
2022-10-25T21:44:36.020Z,7.90
2022-10-25T21:49:39.312Z,7.90
2022-10-25T21:54:44.351Z,7.90
2022-10-25T21:59:47.992Z,7.90
2022-10-25T22:04:51.582Z,7.80
2022-10-25T23:00:08.596Z,7.40
2022-10-25T23:05:13.551Z,7.30
2022-10-25T23:10:18.772Z,7.40
2022-10-25T23:15:23.493Z,7.30
2022-10-25T23:20:26.978Z,7.30
2022-10-25T23:25:33.196Z,7.30
2022-10-25T23:30:37.929Z,7.20
2022-10-25T23:35:41.985Z,7.20
2022-10-25T23:40:46.943Z,7.10
2022-10-25T23:45:52.224Z,7.10
2022-10-25T23:50:56.694Z,7.10
2022-10-25T23:56:00.621Z,7.10
